sensor_id;sensor_type;location;lat;lon;timestamp;P1;durP1;ratioP1;P2;durP2;ratioP2
2021;SDS011;1015;49.756;6.994;2023-02-01T00:02:03;30.73;;;14.00;;
2021;SDS011;1015;49.756;6.994;2023-02-01T00:04:30;25.43;;;13.70;;
2021;SDS011;1015;49.756;6.994;2023-02-01T00:06:57;23.17;;;14.37;;
2021;SDS011;1015;49.756;6.994;2023-02-01T00:09:25;22.43;;;13.43;;
2021;SDS011;1015;49.756;6.994;2023-02-01T00:11:53;25.50;;;14.80;;
2021;SDS011;1015;49.756;6.994;2023-02-01T00:14:20;24.40;;;14.30;;
2021;SDS011;1015;49.756;6.994;2023-02-01T00:16:47;23.00;;;12.97;;
2021;SDS011;1015;49.756;6.994;2023-02-01T00:19:16;26.93;;;14.13;;
2021;SDS011;1015;49.756;6.994;2023-02-01T00:21:43;24.90;;;14.20;;
2021;SDS011;1015;49.756;6.994;2023-02-01T00:24:11;25.20;;;13.57;;
2021;SDS011;1015;49.756;6.994;2023-02-01T00:26:39;27.33;;;14.00;;
2021;SDS011;1015;49.756;6.994;2023-02-01T00:29:09;22.83;;;13.50;;
2021;SDS011;1015;49.756;6.994;2023-02-01T00:31:36;22.90;;;13.30;;
2021;SDS011;1015;49.756;6.994;2023-02-01T00:34:04;23.73;;;12.40;;
2021;SDS011;1015;49.756;6.994;2023-02-01T00:36:32;24.83;;;13.40;;
2021;SDS011;1015;49.756;6.994;2023-02-01T00:39:00;28.77;;;14.77;;
2021;SDS011;1015;49.756;6.994;2023-02-01T00:41:27;26.47;;;12.83;;
2021;SDS011;1015;49.756;6.994;2023-02-01T00:43:54;22.13;;;11.23;;
2021;SDS011;1015;49.756;6.994;2023-02-01T00:46:22;30.77;;;13.40;;
2021;SDS011;1015;49.756;6.994;2023-02-01T00:48:49;26.30;;;14.47;;
2021;SDS011;1015;49.756;6.994;2023-02-01T00:51:18;27.63;;;15.37;;
2021;SDS011;1015;49.756;6.994;2023-02-01T00:53:47;25.80;;;14.73;;
2021;SDS011;1015;49.756;6.994;2023-02-01T00:56:14;24.03;;;13.60;;
2021;SDS011;1015;49.756;6.994;2023-02-01T00:58:42;23.93;;;12.70;;
2021;SDS011;1015;49.756;6.994;2023-02-01T01:01:11;20.67;;;12.77;;
2021;SDS011;1015;49.756;6.994;2023-02-01T01:03:39;21.57;;;12.93;;
2021;SDS011;1015;49.756;6.994;2023-02-01T01:06:07;24.17;;;12.30;;
2021;SDS011;1015;49.756;6.994;2023-02-01T01:08:35;16.47;;;9.00;;
2021;SDS011;1015;49.756;6.994;2023-02-01T01:11:07;23.63;;;12.27;;
2021;SDS011;1015;49.756;6.994;2023-02-01T01:13:35;17.60;;;10.97;;
2021;SDS011;1015;49.756;6.994;2023-02-01T01:16:03;20.07;;;11.97;;
2021;SDS011;1015;49.756;6.994;2023-02-01T01:18:31;18.70;;;11.87;;
2021;SDS011;1015;49.756;6.994;2023-02-01T01:20:59;24.47;;;11.73;;
2021;SDS011;1015;49.756;6.994;2023-02-01T01:23:26;20.00;;;11.47;;
2021;SDS011;1015;49.756;6.994;2023-02-01T01:25:53;19.77;;;11.27;;
2021;SDS011;1015;49.756;6.994;2023-02-01T01:28:22;19.90;;;13.07;;
2021;SDS011;1015;49.756;6.994;2023-02-01T01:30:49;21.93;;;13.73;;
2021;SDS011;1015;49.756;6.994;2023-02-01T01:33:16;20.93;;;13.33;;
2021;SDS011;1015;49.756;6.994;2023-02-01T01:35:44;23.40;;;13.60;;
2021;SDS011;1015;49.756;6.994;2023-02-01T01:38:11;26.77;;;14.60;;
2021;SDS011;1015;49.756;6.994;2023-02-01T01:40:38;22.60;;;14.77;;
2021;SDS011;1015;49.756;6.994;2023-02-01T01:43:10;28.47;;;14.70;;
2021;SDS011;1015;49.756;6.994;2023-02-01T01:45:41;23.10;;;14.03;;
2021;SDS011;1015;49.756;6.994;2023-02-01T01:48:08;24.00;;;14.70;;
2021;SDS011;1015;49.756;6.994;2023-02-01T01:50:38;22.17;;;13.90;;
2021;SDS011;1015;49.756;6.994;2023-02-01T01:53:07;24.83;;;14.40;;
2021;SDS011;1015;49.756;6.994;2023-02-01T01:55:36;18.27;;;12.20;;
2021;SDS011;1015;49.756;6.994;2023-02-01T01:58:05;21.83;;;14.10;;
2021;SDS011;1015;49.756;6.994;2023-02-01T02:00:32;26.37;;;15.43;;
2021;SDS011;1015;49.756;6.994;2023-02-01T02:03:03;28.23;;;16.13;;
2021;SDS011;1015;49.756;6.994;2023-02-01T02:05:33;24.37;;;15.83;;
2021;SDS011;1015;49.756;6.994;2023-02-01T02:08:00;22.40;;;14.57;;
2021;SDS011;1015;49.756;6.994;2023-02-01T02:10:27;25.80;;;14.63;;
2021;SDS011;1015;49.756;6.994;2023-02-01T02:13:09;28.67;;;13.67;;
2021;SDS011;1015;49.756;6.994;2023-02-01T02:15:37;20.27;;;13.77;;
2021;SDS011;1015;49.756;6.994;2023-02-01T02:18:08;18.20;;;11.13;;
2021;SDS011;1015;49.756;6.994;2023-02-01T02:23:39;21.83;;;14.40;;
2021;SDS011;1015;49.756;6.994;2023-02-01T02:26:23;26.50;;;13.53;;
2021;SDS011;1015;49.756;6.994;2023-02-01T02:28:57;24.90;;;14.33;;
2021;SDS011;1015;49.756;6.994;2023-02-01T02:31:39;23.60;;;14.83;;
2021;SDS011;1015;49.756;6.994;2023-02-01T02:34:12;25.33;;;14.90;;
2021;SDS011;1015;49.756;6.994;2023-02-01T02:36:43;25.90;;;16.07;;
2021;SDS011;1015;49.756;6.994;2023-02-01T02:39:15;22.87;;;16.10;;
2021;SDS011;1015;49.756;6.994;2023-02-01T02:41:47;27.97;;;14.63;;
2021;SDS011;1015;49.756;6.994;2023-02-01T02:44:34;25.03;;;13.20;;
2021;SDS011;1015;49.756;6.994;2023-02-01T02:47:22;18.93;;;13.00;;
2021;SDS011;1015;49.756;6.994;2023-02-01T02:49:52;25.77;;;14.80;;
2021;SDS011;1015;49.756;6.994;2023-02-01T02:52:36;26.27;;;14.30;;
2021;SDS011;1015;49.756;6.994;2023-02-01T02:55:23;23.17;;;13.40;;
2021;SDS011;1015;49.756;6.994;2023-02-01T02:57:52;24.93;;;14.83;;
2021;SDS011;1015;49.756;6.994;2023-02-01T03:00:37;19.50;;;12.90;;
2021;SDS011;1015;49.756;6.994;2023-02-01T03:03:23;21.47;;;14.40;;
2021;SDS011;1015;49.756;6.994;2023-02-01T03:06:11;26.47;;;14.20;;
2021;SDS011;1015;49.756;6.994;2023-02-01T03:08:39;21.37;;;13.20;;
2021;SDS011;1015;49.756;6.994;2023-02-01T03:11:10;20.83;;;13.10;;
2021;SDS011;1015;49.756;6.994;2023-02-01T03:13:40;29.93;;;14.97;;
2021;SDS011;1015;49.756;6.994;2023-02-01T03:16:09;26.77;;;14.53;;
2021;SDS011;1015;49.756;6.994;2023-02-01T03:18:42;22.57;;;13.63;;
2021;SDS011;1015;49.756;6.994;2023-02-01T03:21:13;21.50;;;12.43;;
2021;SDS011;1015;49.756;6.994;2023-02-01T03:23:42;24.83;;;13.93;;
2021;SDS011;1015;49.756;6.994;2023-02-01T03:26:11;26.27;;;13.50;;
2021;SDS011;1015;49.756;6.994;2023-02-01T03:28:42;26.07;;;12.80;;
2021;SDS011;1015;49.756;6.994;2023-02-01T03:31:09;25.97;;;14.47;;
2021;SDS011;1015;49.756;6.994;2023-02-01T03:33:39;20.77;;;13.10;;
2021;SDS011;1015;49.756;6.994;2023-02-01T03:36:09;23.77;;;14.13;;
2021;SDS011;1015;49.756;6.994;2023-02-01T03:38:42;18.50;;;12.70;;
2021;SDS011;1015;49.756;6.994;2023-02-01T03:41:12;21.20;;;14.00;;
2021;SDS011;1015;49.756;6.994;2023-02-01T03:43:43;24.90;;;13.53;;
2021;SDS011;1015;49.756;6.994;2023-02-01T03:46:14;18.97;;;11.73;;
2021;SDS011;1015;49.756;6.994;2023-02-01T03:48:42;21.40;;;11.97;;
2021;SDS011;1015;49.756;6.994;2023-02-01T03:51:10;13.70;;;10.70;;
2021;SDS011;1015;49.756;6.994;2023-02-01T03:53:38;20.10;;;12.27;;
2021;SDS011;1015;49.756;6.994;2023-02-01T03:56:09;24.23;;;12.30;;
2021;SDS011;1015;49.756;6.994;2023-02-01T03:58:37;20.03;;;12.63;;
2021;SDS011;1015;49.756;6.994;2023-02-01T04:01:05;21.70;;;12.63;;
2021;SDS011;1015;49.756;6.994;2023-02-01T04:03:32;22.10;;;12.17;;
2021;SDS011;1015;49.756;6.994;2023-02-01T04:05:59;18.80;;;12.20;;
2021;SDS011;1015;49.756;6.994;2023-02-01T04:08:26;21.90;;;11.50;;
2021;SDS011;1015;49.756;6.994;2023-02-01T04:10:53;19.80;;;11.70;;
2021;SDS011;1015;49.756;6.994;2023-02-01T04:13:22;14.80;;;11.00;;
2021;SDS011;1015;49.756;6.994;2023-02-01T04:15:49;22.30;;;12.53;;
2021;SDS011;1015;49.756;6.994;2023-02-01T04:18:16;24.03;;;14.27;;
2021;SDS011;1015;49.756;6.994;2023-02-01T04:20:44;20.80;;;13.23;;
2021;SDS011;1015;49.756;6.994;2023-02-01T04:23:11;19.93;;;13.77;;
2021;SDS011;1015;49.756;6.994;2023-02-01T04:25:40;23.60;;;12.93;;
2021;SDS011;1015;49.756;6.994;2023-02-01T04:28:07;29.33;;;14.27;;
2021;SDS011;1015;49.756;6.994;2023-02-01T04:30:36;20.70;;;12.57;;
2021;SDS011;1015;49.756;6.994;2023-02-01T04:33:03;23.23;;;13.90;;
2021;SDS011;1015;49.756;6.994;2023-02-01T04:35:31;22.80;;;11.77;;
2021;SDS011;1015;49.756;6.994;2023-02-01T04:37:58;22.13;;;13.20;;
2021;SDS011;1015;49.756;6.994;2023-02-01T04:40:25;23.37;;;14.30;;
2021;SDS011;1015;49.756;6.994;2023-02-01T04:42:53;29.27;;;13.07;;
2021;SDS011;1015;49.756;6.994;2023-02-01T04:45:20;21.57;;;13.97;;
2021;SDS011;1015;49.756;6.994;2023-02-01T04:47:48;25.87;;;13.53;;
2021;SDS011;1015;49.756;6.994;2023-02-01T04:50:16;19.50;;;13.40;;
2021;SDS011;1015;49.756;6.994;2023-02-01T04:52:43;24.23;;;12.47;;
2021;SDS011;1015;49.756;6.994;2023-02-01T04:55:11;24.43;;;13.10;;
2021;SDS011;1015;49.756;6.994;2023-02-01T04:57:38;19.53;;;12.83;;
2021;SDS011;1015;49.756;6.994;2023-02-01T05:00:06;22.37;;;11.80;;
2021;SDS011;1015;49.756;6.994;2023-02-01T05:02:34;18.40;;;12.40;;
2021;SDS011;1015;49.756;6.994;2023-02-01T05:05:03;24.03;;;11.30;;
2021;SDS011;1015;49.756;6.994;2023-02-01T05:07:30;19.77;;;11.20;;
2021;SDS011;1015;49.756;6.994;2023-02-01T05:09:57;19.03;;;10.47;;
2021;SDS011;1015;49.756;6.994;2023-02-01T05:12:24;17.33;;;10.37;;
2021;SDS011;1015;49.756;6.994;2023-02-01T05:15:09;23.23;;;10.90;;
2021;SDS011;1015;49.756;6.994;2023-02-01T05:17:36;22.63;;;11.83;;
2021;SDS011;1015;49.756;6.994;2023-02-01T05:20:07;18.20;;;11.40;;
2021;SDS011;1015;49.756;6.994;2023-02-01T05:22:34;17.80;;;11.10;;
2021;SDS011;1015;49.756;6.994;2023-02-01T05:25:02;18.07;;;9.80;;
2021;SDS011;1015;49.756;6.994;2023-02-01T05:27:29;20.90;;;10.70;;
2021;SDS011;1015;49.756;6.994;2023-02-01T05:29:56;20.97;;;10.93;;
2021;SDS011;1015;49.756;6.994;2023-02-01T05:32:23;24.77;;;10.43;;
2021;SDS011;1015;49.756;6.994;2023-02-01T05:34:51;15.33;;;9.40;;
2021;SDS011;1015;49.756;6.994;2023-02-01T05:37:19;20.57;;;10.30;;
2021;SDS011;1015;49.756;6.994;2023-02-01T05:39:46;17.83;;;10.33;;
2021;SDS011;1015;49.756;6.994;2023-02-01T05:42:14;15.67;;;9.20;;
2021;SDS011;1015;49.756;6.994;2023-02-01T05:44:41;17.80;;;9.23;;
2021;SDS011;1015;49.756;6.994;2023-02-01T05:47:08;19.27;;;10.40;;
2021;SDS011;1015;49.756;6.994;2023-02-01T05:49:37;17.80;;;10.50;;
2021;SDS011;1015;49.756;6.994;2023-02-01T05:52:04;16.90;;;9.20;;
2021;SDS011;1015;49.756;6.994;2023-02-01T05:54:33;18.57;;;9.20;;
2021;SDS011;1015;49.756;6.994;2023-02-01T05:57:00;13.73;;;8.80;;
2021;SDS011;1015;49.756;6.994;2023-02-01T05:59:28;16.97;;;8.53;;
2021;SDS011;1015;49.756;6.994;2023-02-01T06:01:55;14.57;;;8.43;;
2021;SDS011;1015;49.756;6.994;2023-02-01T06:04:22;16.27;;;7.50;;
2021;SDS011;1015;49.756;6.994;2023-02-01T06:06:49;17.50;;;7.10;;
2021;SDS011;1015;49.756;6.994;2023-02-01T06:09:17;18.07;;;8.13;;
2021;SDS011;1015;49.756;6.994;2023-02-01T06:11:45;18.60;;;7.67;;
2021;SDS011;1015;49.756;6.994;2023-02-01T06:14:12;21.83;;;7.70;;
2021;SDS011;1015;49.756;6.994;2023-02-01T06:16:40;18.33;;;7.57;;
2021;SDS011;1015;49.756;6.994;2023-02-01T06:19:07;14.70;;;7.20;;
2021;SDS011;1015;49.756;6.994;2023-02-01T06:21:34;20.20;;;7.77;;
2021;SDS011;1015;49.756;6.994;2023-02-01T06:24:02;15.37;;;6.70;;
2021;SDS011;1015;49.756;6.994;2023-02-01T06:26:29;13.83;;;6.67;;
2021;SDS011;1015;49.756;6.994;2023-02-01T06:28:58;15.83;;;7.10;;
2021;SDS011;1015;49.756;6.994;2023-02-01T06:31:25;15.40;;;7.10;;
2021;SDS011;1015;49.756;6.994;2023-02-01T06:33:52;17.53;;;7.63;;
2021;SDS011;1015;49.756;6.994;2023-02-01T06:36:20;14.73;;;7.43;;
2021;SDS011;1015;49.756;6.994;2023-02-01T06:38:47;13.73;;;7.70;;
2021;SDS011;1015;49.756;6.994;2023-02-01T06:41:14;24.40;;;8.00;;
2021;SDS011;1015;49.756;6.994;2023-02-01T06:43:42;16.80;;;8.27;;
2021;SDS011;1015;49.756;6.994;2023-02-01T06:46:12;15.63;;;7.53;;
2021;SDS011;1015;49.756;6.994;2023-02-01T06:48:40;16.73;;;8.17;;
2021;SDS011;1015;49.756;6.994;2023-02-01T06:51:14;17.33;;;8.10;;
2021;SDS011;1015;49.756;6.994;2023-02-01T06:53:44;21.13;;;7.40;;
2021;SDS011;1015;49.756;6.994;2023-02-01T06:56:12;10.47;;;6.17;;
2021;SDS011;1015;49.756;6.994;2023-02-01T06:58:39;14.20;;;6.23;;
2021;SDS011;1015;49.756;6.994;2023-02-01T07:01:06;11.90;;;5.13;;
2021;SDS011;1015;49.756;6.994;2023-02-01T07:03:35;10.70;;;4.80;;
2021;SDS011;1015;49.756;6.994;2023-02-01T07:06:03;14.07;;;4.73;;
2021;SDS011;1015;49.756;6.994;2023-02-01T07:08:31;12.70;;;4.90;;
2021;SDS011;1015;49.756;6.994;2023-02-01T07:11:00;12.83;;;4.13;;
2021;SDS011;1015;49.756;6.994;2023-02-01T07:13:28;8.43;;;3.70;;
2021;SDS011;1015;49.756;6.994;2023-02-01T07:15:57;12.27;;;4.13;;
2021;SDS011;1015;49.756;6.994;2023-02-01T07:18:24;7.97;;;3.87;;
2021;SDS011;1015;49.756;6.994;2023-02-01T07:20:53;7.63;;;3.40;;
2021;SDS011;1015;49.756;6.994;2023-02-01T07:23:20;11.17;;;3.73;;
2021;SDS011;1015;49.756;6.994;2023-02-01T07:25:47;13.07;;;4.23;;
2021;SDS011;1015;49.756;6.994;2023-02-01T07:28:14;9.57;;;3.70;;
2021;SDS011;1015;49.756;6.994;2023-02-01T07:30:42;12.97;;;4.73;;
2021;SDS011;1015;49.756;6.994;2023-02-01T07:33:15;7.37;;;3.50;;
2021;SDS011;1015;49.756;6.994;2023-02-01T07:35:42;10.63;;;3.60;;
2021;SDS011;1015;49.756;6.994;2023-02-01T07:38:11;10.37;;;4.00;;
2021;SDS011;1015;49.756;6.994;2023-02-01T07:40:38;6.00;;;4.10;;
2021;SDS011;1015;49.756;6.994;2023-02-01T07:43:05;12.03;;;3.90;;
2021;SDS011;1015;49.756;6.994;2023-02-01T07:45:33;12.80;;;4.20;;
2021;SDS011;1015;49.756;6.994;2023-02-01T07:48:00;24.53;;;4.27;;
2021;SDS011;1015;49.756;6.994;2023-02-01T07:50:27;12.03;;;3.90;;
2021;SDS011;1015;49.756;6.994;2023-02-01T07:52:58;13.83;;;4.40;;
2021;SDS011;1015;49.756;6.994;2023-02-01T07:55:27;7.10;;;3.40;;
2021;SDS011;1015;49.756;6.994;2023-02-01T07:57:56;13.50;;;3.83;;
2021;SDS011;1015;49.756;6.994;2023-02-01T08:00:23;7.13;;;4.07;;
2021;SDS011;1015;49.756;6.994;2023-02-01T08:03:08;10.80;;;3.60;;
2021;SDS011;1015;49.756;6.994;2023-02-01T08:05:35;9.03;;;3.37;;
2021;SDS011;1015;49.756;6.994;2023-02-01T08:08:03;11.33;;;3.40;;
2021;SDS011;1015;49.756;6.994;2023-02-01T08:10:31;10.00;;;3.33;;
2021;SDS011;1015;49.756;6.994;2023-02-01T08:12:59;13.57;;;3.63;;
2021;SDS011;1015;49.756;6.994;2023-02-01T08:15:27;8.00;;;3.83;;
2021;SDS011;1015;49.756;6.994;2023-02-01T08:17:54;13.50;;;5.10;;
2021;SDS011;1015;49.756;6.994;2023-02-01T08:20:23;12.03;;;3.57;;
2021;SDS011;1015;49.756;6.994;2023-02-01T08:22:52;7.33;;;3.13;;
2021;SDS011;1015;49.756;6.994;2023-02-01T08:25:19;9.53;;;4.07;;
2021;SDS011;1015;49.756;6.994;2023-02-01T08:27:48;9.63;;;3.30;;
2021;SDS011;1015;49.756;6.994;2023-02-01T08:30:15;9.00;;;4.37;;
2021;SDS011;1015;49.756;6.994;2023-02-01T08:32:42;13.70;;;3.37;;
2021;SDS011;1015;49.756;6.994;2023-02-01T08:35:09;9.57;;;3.20;;
2021;SDS011;1015;49.756;6.994;2023-02-01T08:37:37;7.80;;;3.23;;
2021;SDS011;1015;49.756;6.994;2023-02-01T08:40:04;8.33;;;3.53;;
2021;SDS011;1015;49.756;6.994;2023-02-01T08:42:32;10.30;;;3.63;;
2021;SDS011;1015;49.756;6.994;2023-02-01T08:45:19;12.87;;;3.57;;
2021;SDS011;1015;49.756;6.994;2023-02-01T08:47:47;8.60;;;3.70;;
2021;SDS011;1015;49.756;6.994;2023-02-01T08:50:14;8.90;;;3.60;;
2021;SDS011;1015;49.756;6.994;2023-02-01T08:52:41;10.37;;;3.40;;
2021;SDS011;1015;49.756;6.994;2023-02-01T08:55:09;6.57;;;3.10;;
2021;SDS011;1015;49.756;6.994;2023-02-01T08:57:36;10.47;;;3.50;;
2021;SDS011;1015;49.756;6.994;2023-02-01T09:00:04;10.77;;;3.20;;
2021;SDS011;1015;49.756;6.994;2023-02-01T09:02:33;9.10;;;3.73;;
2021;SDS011;1015;49.756;6.994;2023-02-01T09:05:00;13.27;;;4.60;;
2021;SDS011;1015;49.756;6.994;2023-02-01T09:07:27;13.27;;;4.10;;
2021;SDS011;1015;49.756;6.994;2023-02-01T09:09:55;14.10;;;4.33;;
2021;SDS011;1015;49.756;6.994;2023-02-01T09:12:26;9.13;;;3.23;;
2021;SDS011;1015;49.756;6.994;2023-02-01T09:14:53;10.37;;;3.90;;
2021;SDS011;1015;49.756;6.994;2023-02-01T09:17:20;8.33;;;3.90;;
2021;SDS011;1015;49.756;6.994;2023-02-01T09:19:49;12.40;;;3.83;;
2021;SDS011;1015;49.756;6.994;2023-02-01T09:22:16;11.73;;;4.20;;
2021;SDS011;1015;49.756;6.994;2023-02-01T09:24:43;11.90;;;3.63;;
2021;SDS011;1015;49.756;6.994;2023-02-01T09:27:10;7.73;;;3.60;;
2021;SDS011;1015;49.756;6.994;2023-02-01T09:29:38;10.47;;;3.47;;
2021;SDS011;1015;49.756;6.994;2023-02-01T09:32:05;9.90;;;3.47;;
2021;SDS011;1015;49.756;6.994;2023-02-01T09:34:32;15.27;;;4.70;;
2021;SDS011;1015;49.756;6.994;2023-02-01T09:37:01;10.63;;;4.10;;
2021;SDS011;1015;49.756;6.994;2023-02-01T09:39:28;16.10;;;3.60;;
2021;SDS011;1015;49.756;6.994;2023-02-01T09:41:58;7.10;;;4.03;;
2021;SDS011;1015;49.756;6.994;2023-02-01T09:44:34;12.47;;;3.80;;
2021;SDS011;1015;49.756;6.994;2023-02-01T09:47:02;8.30;;;3.37;;
2021;SDS011;1015;49.756;6.994;2023-02-01T09:49:30;7.20;;;3.10;;
2021;SDS011;1015;49.756;6.994;2023-02-01T09:51:59;10.00;;;4.40;;
2021;SDS011;1015;49.756;6.994;2023-02-01T09:54:29;10.63;;;3.80;;
2021;SDS011;1015;49.756;6.994;2023-02-01T09:57:02;13.40;;;3.63;;
2021;SDS011;1015;49.756;6.994;2023-02-01T09:59:32;9.27;;;3.40;;
2021;SDS011;1015;49.756;6.994;2023-02-01T10:02:01;8.40;;;3.33;;
2021;SDS011;1015;49.756;6.994;2023-02-01T10:04:30;11.13;;;3.43;;
2021;SDS011;1015;49.756;6.994;2023-02-01T10:07:07;5.90;;;3.23;;
2021;SDS011;1015;49.756;6.994;2023-02-01T10:09:41;6.47;;;3.00;;
2021;SDS011;1015;49.756;6.994;2023-02-01T10:12:22;11.70;;;3.43;;
2021;SDS011;1015;49.756;6.994;2023-02-01T10:14:57;14.07;;;4.67;;
2021;SDS011;1015;49.756;6.994;2023-02-01T10:17:29;16.10;;;4.03;;
2021;SDS011;1015;49.756;6.994;2023-02-01T10:20:03;6.77;;;3.37;;
2021;SDS011;1015;49.756;6.994;2023-02-01T10:22:35;11.20;;;3.47;;
2021;SDS011;1015;49.756;6.994;2023-02-01T10:25:11;7.27;;;3.10;;
2021;SDS011;1015;49.756;6.994;2023-02-01T10:27:40;11.27;;;2.97;;
2021;SDS011;1015;49.756;6.994;2023-02-01T10:30:14;12.77;;;3.87;;
2021;SDS011;1015;49.756;6.994;2023-02-01T10:32:42;11.00;;;3.70;;
2021;SDS011;1015;49.756;6.994;2023-02-01T10:35:10;5.37;;;3.17;;
2021;SDS011;1015;49.756;6.994;2023-02-01T10:37:39;11.80;;;3.57;;
2021;SDS011;1015;49.756;6.994;2023-02-01T10:40:12;16.20;;;3.93;;
2021;SDS011;1015;49.756;6.994;2023-02-01T10:42:40;9.93;;;3.57;;
2021;SDS011;1015;49.756;6.994;2023-02-01T10:45:11;7.67;;;3.40;;
2021;SDS011;1015;49.756;6.994;2023-02-01T10:47:38;8.60;;;3.50;;
2021;SDS011;1015;49.756;6.994;2023-02-01T10:50:10;9.83;;;3.83;;
2021;SDS011;1015;49.756;6.994;2023-02-01T10:52:41;6.40;;;3.63;;
2021;SDS011;1015;49.756;6.994;2023-02-01T10:55:31;9.30;;;3.30;;
2021;SDS011;1015;49.756;6.994;2023-02-01T10:57:59;13.70;;;3.30;;
2021;SDS011;1015;49.756;6.994;2023-02-01T11:00:27;11.97;;;3.47;;
2021;SDS011;1015;49.756;6.994;2023-02-01T11:02:54;6.63;;;3.20;;
2021;SDS011;1015;49.756;6.994;2023-02-01T11:05:22;8.33;;;3.10;;
2021;SDS011;1015;49.756;6.994;2023-02-01T11:07:51;13.30;;;3.33;;
2021;SDS011;1015;49.756;6.994;2023-02-01T11:13:03;12.23;;;3.53;;
2021;SDS011;1015;49.756;6.994;2023-02-01T11:15:31;12.50;;;3.30;;
2021;SDS011;1015;49.756;6.994;2023-02-01T11:18:07;9.93;;;2.90;;
2021;SDS011;1015;49.756;6.994;2023-02-01T11:20:40;4.43;;;2.60;;
2021;SDS011;1015;49.756;6.994;2023-02-01T11:23:12;12.07;;;3.90;;
2021;SDS011;1015;49.756;6.994;2023-02-01T11:25:46;8.37;;;2.90;;
2021;SDS011;1015;49.756;6.994;2023-02-01T11:28:16;8.53;;;2.87;;
2021;SDS011;1015;49.756;6.994;2023-02-01T11:30:44;10.60;;;3.40;;
2021;SDS011;1015;49.756;6.994;2023-02-01T11:33:17;9.97;;;3.00;;
2021;SDS011;1015;49.756;6.994;2023-02-01T11:35:45;12.03;;;2.80;;
2021;SDS011;1015;49.756;6.994;2023-02-01T11:38:19;4.80;;;2.67;;
2021;SDS011;1015;49.756;6.994;2023-02-01T11:40:47;10.17;;;3.73;;
2021;SDS011;1015;49.756;6.994;2023-02-01T11:43:17;8.80;;;3.10;;
2021;SDS011;1015;49.756;6.994;2023-02-01T11:45:53;8.50;;;3.20;;
2021;SDS011;1015;49.756;6.994;2023-02-01T11:48:21;5.97;;;2.47;;
2021;SDS011;1015;49.756;6.994;2023-02-01T11:50:51;7.20;;;3.17;;
2021;SDS011;1015;49.756;6.994;2023-02-01T11:53:25;4.47;;;2.20;;
2021;SDS011;1015;49.756;6.994;2023-02-01T11:56:04;7.20;;;2.73;;
2021;SDS011;1015;49.756;6.994;2023-02-01T11:58:49;9.90;;;3.20;;
2021;SDS011;1015;49.756;6.994;2023-02-01T12:01:22;13.90;;;3.07;;
2021;SDS011;1015;49.756;6.994;2023-02-01T12:03:58;6.00;;;2.70;;
2021;SDS011;1015;49.756;6.994;2023-02-01T12:06:31;8.60;;;2.90;;
2021;SDS011;1015;49.756;6.994;2023-02-01T12:09:02;7.30;;;3.53;;
2021;SDS011;1015;49.756;6.994;2023-02-01T12:11:36;8.73;;;3.43;;
2021;SDS011;1015;49.756;6.994;2023-02-01T12:14:13;9.87;;;3.50;;
2021;SDS011;1015;49.756;6.994;2023-02-01T12:16:46;5.60;;;2.93;;
2021;SDS011;1015;49.756;6.994;2023-02-01T12:19:21;7.77;;;2.90;;
2021;SDS011;1015;49.756;6.994;2023-02-01T12:21:53;8.67;;;3.43;;
2021;SDS011;1015;49.756;6.994;2023-02-01T12:27:27;7.93;;;2.70;;
2021;SDS011;1015;49.756;6.994;2023-02-01T12:30:07;9.00;;;3.30;;
2021;SDS011;1015;49.756;6.994;2023-02-01T12:32:41;7.07;;;2.20;;
2021;SDS011;1015;49.756;6.994;2023-02-01T12:35:20;5.80;;;2.70;;
2021;SDS011;1015;49.756;6.994;2023-02-01T12:37:59;7.30;;;3.10;;
2021;SDS011;1015;49.756;6.994;2023-02-01T12:40:34;9.03;;;2.40;;
2021;SDS011;1015;49.756;6.994;2023-02-01T12:43:04;5.30;;;2.43;;
2021;SDS011;1015;49.756;6.994;2023-02-01T12:45:38;6.60;;;2.20;;
2021;SDS011;1015;49.756;6.994;2023-02-01T12:50:52;5.67;;;1.60;;
2021;SDS011;1015;49.756;6.994;2023-02-01T12:53:22;7.17;;;2.73;;
2021;SDS011;1015;49.756;6.994;2023-02-01T12:55:51;7.73;;;2.03;;
2021;SDS011;1015;49.756;6.994;2023-02-01T12:58:20;7.17;;;2.70;;
2021;SDS011;1015;49.756;6.994;2023-02-01T13:00:51;7.23;;;2.67;;
2021;SDS011;1015;49.756;6.994;2023-02-01T13:03:23;10.20;;;3.20;;
2021;SDS011;1015;49.756;6.994;2023-02-01T13:05:54;7.27;;;2.60;;
2021;SDS011;1015;49.756;6.994;2023-02-01T13:08:24;7.10;;;2.30;;
2021;SDS011;1015;49.756;6.994;2023-02-01T13:10:54;6.57;;;2.40;;
2021;SDS011;1015;49.756;6.994;2023-02-01T13:13:26;3.80;;;2.40;;
2021;SDS011;1015;49.756;6.994;2023-02-01T13:15:58;5.63;;;2.10;;
2021;SDS011;1015;49.756;6.994;2023-02-01T13:18:32;7.50;;;2.70;;
2021;SDS011;1015;49.756;6.994;2023-02-01T13:21:02;8.47;;;3.10;;
2021;SDS011;1015;49.756;6.994;2023-02-01T13:23:31;10.10;;;2.30;;
2021;SDS011;1015;49.756;6.994;2023-02-01T13:25:58;6.90;;;2.57;;
2021;SDS011;1015;49.756;6.994;2023-02-01T13:28:26;5.43;;;2.50;;
2021;SDS011;1015;49.756;6.994;2023-02-01T13:31:03;9.73;;;2.70;;
2021;SDS011;1015;49.756;6.994;2023-02-01T13:33:36;6.60;;;2.70;;
2021;SDS011;1015;49.756;6.994;2023-02-01T13:36:26;7.37;;;2.60;;
2021;SDS011;1015;49.756;6.994;2023-02-01T13:41:42;6.00;;;1.93;;
2021;SDS011;1015;49.756;6.994;2023-02-01T13:44:11;7.67;;;2.30;;
2021;SDS011;1015;49.756;6.994;2023-02-01T13:46:41;10.13;;;2.27;;
2021;SDS011;1015;49.756;6.994;2023-02-01T13:49:13;7.37;;;2.53;;
2021;SDS011;1015;49.756;6.994;2023-02-01T13:51:42;5.80;;;2.33;;
2021;SDS011;1015;49.756;6.994;2023-02-01T13:54:23;4.17;;;1.97;;
2021;SDS011;1015;49.756;6.994;2023-02-01T13:56:51;6.03;;;3.03;;
2021;SDS011;1015;49.756;6.994;2023-02-01T14:04:54;7.60;;;2.33;;
2021;SDS011;1015;49.756;6.994;2023-02-01T14:07:22;10.57;;;2.60;;
2021;SDS011;1015;49.756;6.994;2023-02-01T14:09:49;6.70;;;2.83;;
2021;SDS011;1015;49.756;6.994;2023-02-01T14:17:56;6.07;;;2.60;;
2021;SDS011;1015;49.756;6.994;2023-02-01T14:23:16;10.67;;;2.20;;
2021;SDS011;1015;49.756;6.994;2023-02-01T14:25:44;7.87;;;2.73;;
2021;SDS011;1015;49.756;6.994;2023-02-01T14:28:12;8.40;;;3.90;;
2021;SDS011;1015;49.756;6.994;2023-02-01T14:30:48;3.97;;;2.00;;
2021;SDS011;1015;49.756;6.994;2023-02-01T14:33:20;9.10;;;3.47;;
2021;SDS011;1015;49.756;6.994;2023-02-01T14:35:55;7.33;;;2.43;;
2021;SDS011;1015;49.756;6.994;2023-02-01T14:38:25;4.60;;;2.30;;
2021;SDS011;1015;49.756;6.994;2023-02-01T14:41:01;7.60;;;2.10;;
2021;SDS011;1015;49.756;6.994;2023-02-01T14:43:49;5.00;;;2.27;;
2021;SDS011;1015;49.756;6.994;2023-02-01T14:46:16;6.97;;;2.50;;
2021;SDS011;1015;49.756;6.994;2023-02-01T14:48:44;7.27;;;3.10;;
2021;SDS011;1015;49.756;6.994;2023-02-01T14:51:13;8.10;;;2.87;;
2021;SDS011;1015;49.756;6.994;2023-02-01T14:53:42;8.77;;;2.80;;
2021;SDS011;1015;49.756;6.994;2023-02-01T14:56:12;6.17;;;2.87;;
2021;SDS011;1015;49.756;6.994;2023-02-01T14:58:41;8.40;;;3.50;;
2021;SDS011;1015;49.756;6.994;2023-02-01T15:01:16;12.47;;;3.23;;
2021;SDS011;1015;49.756;6.994;2023-02-01T15:03:47;4.13;;;2.30;;
2021;SDS011;1015;49.756;6.994;2023-02-01T15:06:20;12.27;;;2.67;;
2021;SDS011;1015;49.756;6.994;2023-02-01T15:08:49;7.90;;;2.90;;
2021;SDS011;1015;49.756;6.994;2023-02-01T15:11:19;7.63;;;2.80;;
2021;SDS011;1015;49.756;6.994;2023-02-01T15:13:50;10.90;;;2.83;;
2021;SDS011;1015;49.756;6.994;2023-02-01T15:16:19;5.23;;;2.50;;
2021;SDS011;1015;49.756;6.994;2023-02-01T15:18:47;6.63;;;2.23;;
2021;SDS011;1015;49.756;6.994;2023-02-01T15:21:16;8.17;;;2.37;;
2021;SDS011;1015;49.756;6.994;2023-02-01T15:23:44;5.63;;;2.57;;
2021;SDS011;1015;49.756;6.994;2023-02-01T15:26:25;9.43;;;2.67;;
2021;SDS011;1015;49.756;6.994;2023-02-01T15:28:53;6.30;;;2.90;;
2021;SDS011;1015;49.756;6.994;2023-02-01T15:34:02;5.17;;;2.37;;
2021;SDS011;1015;49.756;6.994;2023-02-01T15:36:30;10.00;;;2.70;;
2021;SDS011;1015;49.756;6.994;2023-02-01T15:39:11;8.90;;;2.47;;
2021;SDS011;1015;49.756;6.994;2023-02-01T15:41:44;8.17;;;2.37;;
2021;SDS011;1015;49.756;6.994;2023-02-01T15:44:14;6.20;;;2.23;;
2021;SDS011;1015;49.756;6.994;2023-02-01T15:46:45;5.57;;;2.20;;
2021;SDS011;1015;49.756;6.994;2023-02-01T15:49:17;8.57;;;2.77;;